TimeCST,TemperatureF,Dew PointF,Humidity,Sea Level PressureIn,VisibilityMPH,Wind Direction,Wind SpeedMPH,Gust SpeedMPH,PrecipitationIn,Events,Conditions,WindDirDegrees,DateUTC
12:15 AM,12.2,8.4,85,30.18,10.0,NE,4.6,-,N/A,,Clear,50,2013-02-17 06:15:00
12:35 AM,13.3,8.8,82,30.18,10.0,ENE,3.5,-,N/A,,Clear,60,2013-02-17 06:35:00
12:55 AM,13.1,8.6,82,30.18,10.0,Calm,Calm,-,N/A,,Clear,0,2013-02-17 06:55:00
1:15 AM,12.7,8.4,83,30.18,10.0,Calm,Calm,-,N/A,,Clear,0,2013-02-17 07:15:00
1:35 AM,11.3,7.5,85,30.18,10.0,ENE,4.6,-,N/A,,Clear,60,2013-02-17 07:35:00
1:55 AM,12.4,7.7,82,30.18,10.0,Calm,Calm,-,N/A,,Clear,0,2013-02-17 07:55:00
2:15 AM,12.9,8.1,81,30.18,10.0,Calm,Calm,-,N/A,,Clear,0,2013-02-17 08:15:00
2:35 AM,13.1,7.5,78,30.17,10.0,Calm,Calm,-,N/A,,Clear,0,2013-02-17 08:35:00
2:55 AM,13.1,7.0,77,30.18,10.0,Calm,Calm,-,N/A,,Clear,0,2013-02-17 08:55:00
3:15 AM,13.3,6.1,73,30.18,10.0,Calm,Calm,-,N/A,,Clear,0,2013-02-17 09:15:00
3:35 AM,12.0,5.9,76,30.18,10.0,Calm,Calm,-,N/A,,Clear,0,2013-02-17 09:35:00
3:55 AM,10.9,5.9,80,30.18,10.0,Calm,Calm,-,N/A,,Clear,0,2013-02-17 09:55:00
4:15 AM,10.9,6.8,83,30.18,10.0,Calm,Calm,-,N/A,,Clear,0,2013-02-17 10:15:00
4:35 AM,10.2,5.9,83,30.18,10.0,East,3.5,-,N/A,,Clear,80,2013-02-17 10:35:00
4:55 AM,10.6,6.4,83,30.19,10.0,Calm,Calm,-,N/A,,Clear,0,2013-02-17 10:55:00
5:15 AM,10.9,6.1,81,30.19,10.0,SE,3.5,-,N/A,,Clear,130,2013-02-17 11:15:00
5:35 AM,10.4,5.9,82,30.19,10.0,ESE,3.5,-,N/A,,Clear,110,2013-02-17 11:35:00
5:55 AM,10.4,6.3,83,30.19,10.0,SE,3.5,-,N/A,,Clear,130,2013-02-17 11:55:00
6:15 AM,10.4,6.1,83,30.19,10.0,ESE,3.5,-,N/A,,Clear,110,2013-02-17 12:15:00
6:35 AM,10.8,5.9,81,30.19,10.0,SE,3.5,-,N/A,,Scattered Clouds,130,2013-02-17 12:35:00
6:55 AM,10.6,5.9,81,30.19,10.0,ESE,4.6,-,N/A,,Scattered Clouds,120,2013-02-17 12:55:00
7:15 AM,10.8,6.4,83,30.18,10.0,SE,4.6,-,N/A,,Clear,140,2013-02-17 13:15:00
7:35 AM,12.9,8.4,82,30.19,10.0,SE,4.6,-,N/A,,Clear,140,2013-02-17 13:35:00
7:55 AM,15.3,10.0,80,30.18,10.0,SE,5.8,-,N/A,,Clear,140,2013-02-17 13:55:00
8:15 AM,16.7,9.3,73,30.18,10.0,SSE,8.1,-,N/A,,Clear,150,2013-02-17 14:15:00
8:35 AM,17.6,8.8,68,30.18,10.0,South,9.2,-,N/A,,Clear,170,2013-02-17 14:35:00
8:55 AM,19.2,9.7,66,30.18,10.0,SSE,9.2,-,N/A,,Clear,150,2013-02-17 14:55:00
9:15 AM,20.7,10.6,65,30.18,10.0,SSE,9.2,-,N/A,,Clear,160,2013-02-17 15:15:00
9:35 AM,21.4,10.0,62,30.17,10.0,SE,8.1,-,N/A,,Clear,140,2013-02-17 15:35:00
9:55 AM,22.5,10.4,60,30.18,10.0,SSE,9.2,-,N/A,,Clear,160,2013-02-17 15:55:00
10:15 AM,23.2,10.9,60,30.18,10.0,SSE,10.4,-,N/A,,Clear,150,2013-02-17 16:15:00
10:35 AM,24.3,11.3,58,30.18,10.0,SSE,9.2,-,N/A,,Clear,160,2013-02-17 16:35:00
10:55 AM,25.5,11.5,55,30.18,10.0,South,10.4,-,N/A,,Clear,170,2013-02-17 16:55:00
11:15 AM,26.4,11.8,54,30.18,10.0,SE,9.2,-,N/A,,Clear,140,2013-02-17 17:15:00
11:35 AM,27.9,12.6,53,30.16,10.0,SE,9.2,-,N/A,,Clear,140,2013-02-17 17:35:00
11:55 AM,29.3,13.1,51,30.15,10.0,SSE,8.1,-,N/A,,Clear,150,2013-02-17 17:55:00
12:15 PM,30.2,13.6,50,30.13,10.0,SE,9.2,-,N/A,,Clear,140,2013-02-17 18:15:00
12:55 PM,32.2,14.5,48,30.11,10.0,SE,9.2,-,N/A,,Clear,140,2013-02-17 18:55:00
1:15 PM,32.4,15.4,50,30.11,10.0,SE,11.5,-,N/A,,Clear,140,2013-02-17 19:15:00
1:35 PM,32.5,15.8,50,30.10,10.0,SE,10.4,-,N/A,,Clear,140,2013-02-17 19:35:00
1:55 PM,32.7,16.5,51,30.09,10.0,SSE,10.4,16.1,N/A,,Clear,160,2013-02-17 19:55:00
2:15 PM,33.4,17.4,52,30.07,10.0,SSE,11.5,-,N/A,,Clear,150,2013-02-17 20:15:00
2:35 PM,33.6,17.8,52,30.05,10.0,SE,12.7,-,N/A,,Clear,130,2013-02-17 20:35:00
2:55 PM,34.3,17.8,51,30.05,10.0,SE,16.1,-,N/A,,Clear,140,2013-02-17 20:55:00
3:15 PM,34.2,18.5,53,30.04,10.0,SE,10.4,18.4,N/A,,Clear,130,2013-02-17 21:15:00
3:35 PM,33.8,18.7,54,30.03,10.0,SSE,13.8,-,N/A,,Clear,150,2013-02-17 21:35:00
3:55 PM,34.0,19.0,54,30.03,10.0,SE,15.0,-,N/A,,Clear,140,2013-02-17 21:55:00
4:15 PM,33.8,19.6,56,30.02,10.0,SE,13.8,-,N/A,,Clear,130,2013-02-17 22:15:00
4:35 PM,33.6,19.6,56,30.01,10.0,SE,15.0,-,N/A,,Clear,130,2013-02-17 22:35:00
4:55 PM,32.9,19.4,58,30.01,10.0,SE,16.1,-,N/A,,Clear,130,2013-02-17 22:55:00
5:15 PM,32.0,20.1,62,30.00,10.0,SE,13.8,17.3,N/A,,Clear,130,2013-02-17 23:15:00
5:35 PM,31.8,20.3,62,29.99,10.0,SE,10.4,-,N/A,,Clear,130,2013-02-17 23:35:00
5:55 PM,31.3,20.7,65,29.99,10.0,SE,10.4,17.3,N/A,,Clear,130,2013-02-17 23:55:00
6:15 PM,31.3,21.0,66,29.99,10.0,SE,9.2,-,N/A,,Clear,130,2013-02-18 00:15:00
6:35 PM,31.3,21.4,67,29.99,10.0,SE,9.2,16.1,N/A,,Clear,130,2013-02-18 00:35:00
6:55 PM,30.9,21.6,68,29.97,10.0,SE,10.4,-,N/A,,Clear,130,2013-02-18 00:55:00
7:15 PM,30.9,22.1,70,29.96,10.0,SE,11.5,-,N/A,,Clear,130,2013-02-18 01:15:00
7:35 PM,31.1,22.1,69,29.96,10.0,SE,11.5,16.1,N/A,,Clear,140,2013-02-18 01:35:00
7:55 PM,31.1,22.3,70,29.96,10.0,SE,11.5,-,N/A,,Clear,130,2013-02-18 01:55:00
8:15 PM,31.5,22.3,69,29.96,10.0,SE,11.5,-,N/A,,Clear,130,2013-02-18 02:15:00
8:35 PM,31.6,22.6,69,29.95,10.0,SE,15.0,-,N/A,,Clear,140,2013-02-18 02:35:00
8:55 PM,31.6,22.8,70,29.95,10.0,SE,12.7,-,N/A,,Clear,140,2013-02-18 02:55:00
9:15 PM,31.5,22.8,70,29.94,10.0,SE,13.8,-,N/A,,Clear,140,2013-02-18 03:15:00
9:35 PM,31.6,22.8,70,29.94,10.0,SE,15.0,18.4,N/A,,Clear,140,2013-02-18 03:35:00
9:55 PM,31.6,23.0,70,29.92,10.0,SE,12.7,-,N/A,,Clear,140,2013-02-18 03:55:00
10:15 PM,31.6,22.8,70,29.91,10.0,SE,15.0,-,N/A,,Clear,140,2013-02-18 04:15:00
10:35 PM,31.6,22.8,70,29.90,10.0,SE,15.0,-,N/A,,Clear,130,2013-02-18 04:35:00
10:55 PM,31.3,22.8,71,29.89,10.0,SE,13.8,-,N/A,,Clear,140,2013-02-18 04:55:00
11:15 PM,31.5,23.0,71,29.88,10.0,SE,16.1,19.6,N/A,,Clear,140,2013-02-18 05:15:00
11:35 PM,31.5,22.8,70,29.88,10.0,SE,15.0,-,N/A,,Clear,140,2013-02-18 05:35:00
11:55 PM,31.6,23.0,70,29.87,10.0,SSE,15.0,18.4,N/A,,Clear,150,2013-02-18 05:55:00